Time;durP1;ratioP1;P1;durP2;ratioP2;P2;SDS_P1;SDS_P2;PMS_P1;PMS_P2;Temp;Humidity;BMP_temperature;BMP_pressure;BME280_temperature;BME280_humidity;BME280_pressure;Samples;Min_cycle;Max_cycle;Signal;HPM_P1;HPM_P2
2023/06/04 00:00:47;;;;;;;4.75;1.55;;;;;;;;;;5033932;27;93391;-80
2023/06/04 00:03:14;;;;;;;5.07;1.60;;;;;;;;;;5034057;28;91782;-83
2023/06/04 00:05:40;;;;;;;2.88;1.35;;;;;;;;;;5033527;28;92491;-78
2023/06/04 00:08:07;;;;;;;2.42;1.42;;;;;;;;;;5033327;28;93551;-80
2023/06/04 00:10:33;;;;;;;2.60;1.98;;;;;;;;;;5032115;28;94861;-79
2023/06/04 00:13:00;;;;;;;6.18;1.50;;;;;;;;;;5036736;28;94482;-78
2023/06/04 00:15:26;;;;;;;2.08;1.10;;;;;;;;;;5033958;28;92465;-78
2023/06/04 00:17:53;;;;;;;5.20;1.55;;;;;;;;;;5034515;28;93411;-77
2023/06/04 00:20:20;;;;;;;2.95;1.52;;;;;;;;;;5039068;27;93390;-76
2023/06/04 00:22:46;;;;;;;6.38;1.60;;;;;;;;;;5040852;27;92437;-77
2023/06/04 00:25:12;;;;;;;3.28;1.70;;;;;;;;;;5032889;27;93411;-77
2023/06/04 00:27:39;;;;;;;4.43;1.70;;;;;;;;;;5033933;28;92723;-77
2023/06/04 00:30:06;;;;;;;9.60;1.70;;;;;;;;;;5035119;27;92511;-76
2023/06/04 00:32:32;;;;;;;12.38;1.63;;;;;;;;;;5046551;27;94522;-77
2023/06/04 00:34:59;;;;;;;2.83;1.60;;;;;;;;;;5042354;27;96504;-77
2023/06/04 00:37:27;;;;;;;3.28;1.95;;;;;;;;;;5030726;27;95454;-77
2023/06/04 00:39:53;;;;;;;3.35;1.50;;;;;;;;;;5053317;27;93697;-77
2023/06/04 00:42:20;;;;;;;1.42;1.30;;;;;;;;;;5018526;27;92442;-78
2023/06/04 00:44:47;;;;;;;1.52;1.17;;;;;;;;;;5035766;27;93104;-76
2023/06/04 00:47:18;;;;;;;3.70;1.55;;;;;;;;;;5034007;27;93426;-76
2023/06/04 00:49:44;;;;;;;5.72;1.50;;;;;;;;;;5050132;27;93242;-78
2023/06/04 00:52:14;;;;;;;4.28;1.98;;;;;;;;;;5044700;27;92247;-81
2023/06/04 00:54:41;;;;;;;11.00;1.95;;;;;;;;;;5035033;27;93579;-80
2023/06/04 00:57:08;;;;;;;4.97;1.50;;;;;;;;;;5043059;27;93312;-80
2023/06/04 00:59:36;;;;;;;6.95;1.80;;;;;;;;;;5033904;27;95875;-80
2023/06/04 01:02:03;;;;;;;3.40;1.33;;;;;;;;;;5043828;27;92552;-79
2023/06/04 01:04:45;;;;;;;6.55;1.80;;;;;;;;;;5034978;27;93308;-80
2023/06/04 01:07:13;;;;;;;7.78;1.58;;;;;;;;;;5036521;27;93558;-80
2023/06/04 01:09:39;;;;;;;7.75;2.40;;;;;;;;;;5036598;27;92553;-80
2023/06/04 01:12:06;;;;;;;11.52;1.60;;;;;;;;;;5036417;27;92377;-77
2023/06/04 01:14:36;;;;;;;7.90;1.52;;;;;;;;;;5035786;28;93391;-78
2023/06/04 01:17:13;;;;;;;3.90;1.70;;;;;;;;;;5037219;27;91663;-78
2023/06/04 01:19:54;;;;;;;7.53;1.92;;;;;;;;;;5039292;28;92389;-78
2023/06/04 01:22:31;;;;;;;5.95;2.20;;;;;;;;;;5036617;27;92465;-80
2023/06/04 01:25:01;;;;;;;4.50;1.58;;;;;;;;;;5034560;28;96106;-76
2023/06/04 01:27:28;;;;;;;11.40;2.03;;;;;;;;;;5035144;28;94788;-78
2023/06/04 01:29:56;;;;;;;3.28;2.15;;;;;;;;;;5032815;27;92562;-78
2023/06/04 01:32:23;;;;;;;2.65;1.83;;;;;;;;;;5042473;27;94310;-77
2023/06/04 01:34:50;;;;;;;5.03;2.20;;;;;;;;;;5054273;27;92395;-79
2023/06/04 01:37:16;;;;;;;3.88;2.42;;;;;;;;;;5042074;27;94233;-77
2023/06/04 01:39:43;;;;;;;1.98;1.77;;;;;;;;;;5050524;27;92436;-77
2023/06/04 01:42:09;;;;;;;2.20;2.00;;;;;;;;;;5051153;27;93591;-78
2023/06/04 01:44:36;;;;;;;5.97;2.72;;;;;;;;;;5054836;27;92382;-78
2023/06/04 01:47:03;;;;;;;3.30;2.75;;;;;;;;;;5035953;27;93882;-77
2023/06/04 01:49:29;;;;;;;5.50;2.35;;;;;;;;;;5050377;27;94839;-76
2023/06/04 01:51:56;;;;;;;3.53;2.45;;;;;;;;;;5046843;27;95932;-75
2023/06/04 01:54:22;;;;;;;3.22;2.13;;;;;;;;;;5039216;27;97510;-77
2023/06/04 01:56:49;;;;;;;6.10;2.20;;;;;;;;;;5035608;27;92509;-78
2023/06/04 01:59:16;;;;;;;5.15;2.33;;;;;;;;;;5038529;27;93157;-77
2023/06/04 02:01:42;;;;;;;3.05;2.50;;;;;;;;;;5038809;27;93603;-78
2023/06/04 02:04:09;;;;;;;4.13;2.30;;;;;;;;;;5040518;27;92642;-78
2023/06/04 02:06:36;;;;;;;10.98;3.00;;;;;;;;;;5044571;27;92746;-79
2023/06/04 02:09:03;;;;;;;9.35;2.42;;;;;;;;;;5050817;27;94207;-79
2023/06/04 02:11:30;;;;;;;6.15;2.25;;;;;;;;;;5032456;28;94305;-79
2023/06/04 02:13:58;;;;;;;4.28;2.03;;;;;;;;;;5045429;27;95456;-78
2023/06/04 02:16:25;;;;;;;3.55;1.73;;;;;;;;;;5040504;27;92903;-77
2023/06/04 02:18:51;;;;;;;4.00;1.85;;;;;;;;;;5038642;27;93001;-76
2023/06/04 02:21:17;;;;;;;3.78;1.80;;;;;;;;;;5020196;27;93518;-76
2023/06/04 02:23:44;;;;;;;3.63;1.85;;;;;;;;;;5054816;27;92505;-76
2023/06/04 02:26:10;;;;;;;1.98;1.70;;;;;;;;;;5042474;27;94496;-78
2023/06/04 02:28:37;;;;;;;4.40;2.13;;;;;;;;;;5042850;27;92469;-77
2023/06/04 02:31:03;;;;;;;6.40;2.20;;;;;;;;;;5048420;27;94139;-77
2023/06/04 02:33:30;;;;;;;7.53;1.80;;;;;;;;;;5039982;27;94593;-77
2023/06/04 02:35:57;;;;;;;3.33;2.03;;;;;;;;;;5052326;27;92385;-78
2023/06/04 02:38:23;;;;;;;7.15;1.60;;;;;;;;;;5042175;27;94807;-76
2023/06/04 02:40:49;;;;;;;3.05;2.03;;;;;;;;;;5048723;27;93539;-75
2023/06/04 02:43:16;;;;;;;4.00;2.03;;;;;;;;;;5024860;27;92501;-76
2023/06/04 02:45:42;;;;;;;3.15;1.77;;;;;;;;;;5055281;27;92963;-77
2023/06/04 02:48:08;;;;;;;2.25;1.73;;;;;;;;;;5042111;27;92760;-83
2023/06/04 02:50:35;;;;;;;3.20;1.80;;;;;;;;;;5029706;27;93106;-80
2023/06/04 02:53:01;;;;;;;4.32;1.77;;;;;;;;;;5038558;27;92536;-80
2023/06/04 02:55:28;;;;;;;3.58;1.80;;;;;;;;;;5027512;27;91863;-80
2023/06/04 02:57:54;;;;;;;5.28;2.55;;;;;;;;;;5034120;27;93670;-79
2023/06/04 03:00:20;;;;;;;4.90;2.58;;;;;;;;;;5050281;27;94474;-79
2023/06/04 03:02:48;;;;;;;8.38;1.90;;;;;;;;;;5031284;27;94987;-77
2023/06/04 03:05:17;;;;;;;3.30;2.00;;;;;;;;;;5030882;27;95209;-78
2023/06/04 03:07:45;;;;;;;2.03;1.52;;;;;;;;;;5039687;27;94559;-74
2023/06/04 03:10:12;;;;;;;2.65;1.80;;;;;;;;;;5053693;27;93032;-75
2023/06/04 03:12:38;;;;;;;9.77;1.80;;;;;;;;;;5041224;27;93471;-82
2023/06/04 03:15:05;;;;;;;7.53;1.85;;;;;;;;;;5035960;28;92441;-82
2023/06/04 03:17:32;;;;;;;3.65;1.80;;;;;;;;;;5044024;27;94180;-79
2023/06/04 03:19:58;;;;;;;4.10;2.20;;;;;;;;;;5056310;27;93527;-81
2023/06/04 03:22:25;;;;;;;2.13;1.65;;;;;;;;;;5039002;27;92448;-79
2023/06/04 03:24:53;;;;;;;3.38;2.13;;;;;;;;;;5011652;28;93094;-78
2023/06/04 03:27:20;;;;;;;4.10;2.00;;;;;;;;;;5050931;27;98546;-78
2023/06/04 03:29:47;;;;;;;3.15;2.13;;;;;;;;;;5045993;27;92615;-79
2023/06/04 03:32:15;;;;;;;8.65;2.63;;;;;;;;;;5012520;27;93387;-79
2023/06/04 03:34:42;;;;;;;4.57;2.33;;;;;;;;;;5024506;27;92515;-78
2023/06/04 03:37:09;;;;;;;5.88;2.55;;;;;;;;;;5034974;27;93092;-73
2023/06/04 03:39:35;;;;;;;2.40;1.95;;;;;;;;;;5028593;27;93403;-74
2023/06/04 03:42:02;;;;;;;6.72;2.67;;;;;;;;;;5042090;27;92484;-74
2023/06/04 03:44:28;;;;;;;2.45;1.73;;;;;;;;;;5032181;27;94310;-74
2023/06/04 03:46:55;;;;;;;2.53;2.28;;;;;;;;;;5025422;27;92484;-74
2023/06/04 03:49:22;;;;;;;5.10;2.22;;;;;;;;;;5014492;28;92589;-74
2023/06/04 03:51:48;;;;;;;6.38;2.30;;;;;;;;;;5041207;27;96678;-74
2023/06/04 03:54:16;;;;;;;4.28;2.22;;;;;;;;;;5039854;27;92454;-74
2023/06/04 03:56:44;;;;;;;3.83;2.05;;;;;;;;;;5040044;27;93545;-74
2023/06/04 03:59:10;;;;;;;4.45;2.22;;;;;;;;;;5034090;27;93400;-74
2023/06/04 04:01:37;;;;;;;6.32;2.90;;;;;;;;;;5038212;27;92879;-74
2023/06/04 04:04:04;;;;;;;2.40;2.00;;;;;;;;;;5053596;27;94201;-74
2023/06/04 04:06:31;;;;;;;3.58;2.25;;;;;;;;;;5025288;27;94794;-74
2023/06/04 04:08:58;;;;;;;4.63;2.28;;;;;;;;;;5013160;28;91850;-74
2023/06/04 04:11:25;;;;;;;3.58;2.60;;;;;;;;;;5013995;28;92489;-74
2023/06/04 04:13:52;;;;;;;4.47;2.50;;;;;;;;;;5007796;27;98013;-74
2023/06/04 04:16:18;;;;;;;5.20;2.53;;;;;;;;;;5035593;27;94947;-74
2023/06/04 04:18:45;;;;;;;9.50;2.85;;;;;;;;;;5037890;27;95638;-74
2023/06/04 04:21:11;;;;;;;4.95;2.70;;;;;;;;;;5037124;28;92887;-75
2023/06/04 04:23:41;;;;;;;3.60;2.75;;;;;;;;;;5019961;28;92441;-73
2023/06/04 04:26:08;;;;;;;5.20;2.63;;;;;;;;;;5000629;28;93544;-74
2023/06/04 04:28:35;;;;;;;9.43;2.55;;;;;;;;;;5009625;28;92525;-74
2023/06/04 04:31:02;;;;;;;7.25;3.20;;;;;;;;;;5008637;28;93092;-74
2023/06/04 04:33:32;;;;;;;4.63;2.70;;;;;;;;;;4998110;28;92827;-74
2023/06/04 04:35:59;;;;;;;4.15;2.40;;;;;;;;;;5004826;28;93631;-74
2023/06/04 04:38:28;;;;;;;5.90;3.05;;;;;;;;;;4999763;28;93364;-75
2023/06/04 04:40:55;;;;;;;5.60;2.40;;;;;;;;;;4993157;28;94942;-74
2023/06/04 04:43:31;;;;;;;5.72;2.60;;;;;;;;;;4999687;28;95593;-74
2023/06/04 04:45:58;;;;;;;9.40;3.38;;;;;;;;;;5002040;28;94088;-74
2023/06/04 04:48:25;;;;;;;5.43;2.70;;;;;;;;;;4996851;28;92461;-74
2023/06/04 04:50:51;;;;;;;7.85;2.88;;;;;;;;;;4997066;28;94084;-74
2023/06/04 04:53:18;;;;;;;3.28;2.40;;;;;;;;;;4991227;28;93648;-74
2023/06/04 04:55:44;;;;;;;7.55;2.90;;;;;;;;;;5009087;28;93185;-74
2023/06/04 04:58:11;;;;;;;5.03;2.45;;;;;;;;;;4977881;28;92836;-74
2023/06/04 05:00:37;;;;;;;9.43;2.83;;;;;;;;;;5001208;28;92465;-78
2023/06/04 05:03:03;;;;;;;8.45;2.88;;;;;;;;;;4994192;28;93038;-73
2023/06/04 05:05:31;;;;;;;9.43;3.47;;;;;;;;;;4993308;28;97260;-73
2023/06/04 05:07:58;;;;;;;5.88;2.80;;;;;;;;;;5011066;28;92539;-72
2023/06/04 05:10:24;;;;;;;4.45;2.58;;;;;;;;;;4990267;28;94198;-73
2023/06/04 05:12:54;;;;;;;11.10;3.20;;;;;;;;;;4976871;28;92742;-72
2023/06/04 05:15:21;;;;;;;8.23;3.17;;;;;;;;;;4974767;28;92508;-72
2023/06/04 05:17:47;;;;;;;7.57;3.05;;;;;;;;;;5009929;28;96985;-72
2023/06/04 05:20:15;;;;;;;13.45;3.33;;;;;;;;;;4996464;28;92451;-73
2023/06/04 05:22:43;;;;;;;11.48;2.97;;;;;;;;;;4997237;28;94333;-72
2023/06/04 05:25:09;;;;;;;5.57;2.70;;;;;;;;;;5005892;28;94785;-73
2023/06/04 05:27:37;;;;;;;9.70;2.97;;;;;;;;;;5015526;28;92415;-72
2023/06/04 05:30:04;;;;;;;5.03;2.67;;;;;;;;;;5014938;28;94732;-73
2023/06/04 05:32:32;;;;;;;6.85;2.88;;;;;;;;;;5016316;28;93915;-73
2023/06/04 05:34:59;;;;;;;4.68;2.70;;;;;;;;;;5016116;28;92463;-73
2023/06/04 05:37:29;;;;;;;7.43;3.25;;;;;;;;;;5016540;28;93470;-73
2023/06/04 05:39:56;;;;;;;6.95;2.97;;;;;;;;;;5019403;28;94798;-73
2023/06/04 05:42:23;;;;;;;9.38;3.85;;;;;;;;;;5016202;28;94354;-73
2023/06/04 05:44:50;;;;;;;7.03;3.38;;;;;;;;;;5016099;28;93421;-73
2023/06/04 05:47:16;;;;;;;5.07;3.00;;;;;;;;;;5016373;28;92052;-73
2023/06/04 05:49:43;;;;;;;7.93;2.92;;;;;;;;;;5016176;28;93449;-73
2023/06/04 05:52:10;;;;;;;6.90;3.03;;;;;;;;;;5016001;28;94392;-73
2023/06/04 05:54:37;;;;;;;4.53;2.95;;;;;;;;;;5014419;28;94896;-73
2023/06/04 05:57:05;;;;;;;6.95;2.85;;;;;;;;;;5015947;28;97186;-73
2023/06/04 05:59:32;;;;;;;6.13;2.92;;;;;;;;;;5015725;28;95214;-73
2023/06/04 06:01:58;;;;;;;7.25;2.70;;;;;;;;;;5018828;28;92409;-73
2023/06/04 06:04:25;;;;;;;11.13;2.80;;;;;;;;;;5016073;28;93695;-73
2023/06/04 06:06:52;;;;;;;6.85;2.72;;;;;;;;;;5015713;28;92595;-73
2023/06/04 06:09:19;;;;;;;5.07;2.67;;;;;;;;;;5015787;28;94165;-73
2023/06/04 06:11:45;;;;;;;12.05;3.30;;;;;;;;;;5015985;28;93972;-73
2023/06/04 06:14:12;;;;;;;10.57;2.60;;;;;;;;;;5014481;28;92413;-73
2023/06/04 06:16:39;;;;;;;6.93;2.70;;;;;;;;;;5014284;28;94446;-73
2023/06/04 06:19:05;;;;;;;7.03;2.90;;;;;;;;;;5014037;28;96970;-73
2023/06/04 06:21:31;;;;;;;5.88;2.80;;;;;;;;;;5015700;28;92851;-73
2023/06/04 06:23:58;;;;;;;10.90;3.17;;;;;;;;;;5019308;28;94608;-73
2023/06/04 06:26:25;;;;;;;9.60;2.75;;;;;;;;;;5035568;28;93367;-73
2023/06/04 06:28:51;;;;;;;8.95;3.30;;;;;;;;;;5035915;28;93006;-73
2023/06/04 06:31:17;;;;;;;8.68;2.70;;;;;;;;;;5035439;28;94491;-73
2023/06/04 06:33:44;;;;;;;6.38;2.45;;;;;;;;;;5035565;27;92474;-73
2023/06/04 06:36:14;;;;;;;5.47;2.50;;;;;;;;;;5035948;28;94399;-73
2023/06/04 06:38:41;;;;;;;6.57;2.17;;;;;;;;;;5035297;27;95182;-73
2023/06/04 06:41:09;;;;;;;4.18;2.33;;;;;;;;;;5035395;28;92868;-73
2023/06/04 06:43:35;;;;;;;4.05;2.20;;;;;;;;;;5036710;27;94886;-73
2023/06/04 06:46:02;;;;;;;8.57;2.60;;;;;;;;;;5035276;27;92475;-73
2023/06/04 06:48:28;;;;;;;4.00;2.58;;;;;;;;;;5035523;28;94957;-73
2023/06/04 06:50:55;;;;;;;4.38;2.10;;;;;;;;;;5035285;28;94539;-73
2023/06/04 06:53:21;;;;;;;6.25;2.97;;;;;;;;;;5035208;27;92537;-73
2023/06/04 06:55:47;;;;;;;10.25;2.95;;;;;;;;;;5035222;27;94610;-73
2023/06/04 06:58:15;;;;;;;5.82;2.20;;;;;;;;;;5034756;27;94396;-73
2023/06/04 07:00:41;;;;;;;7.00;2.30;;;;;;;;;;5035677;28;91744;-73
2023/06/04 07:03:08;;;;;;;7.18;2.83;;;;;;;;;;5035228;28;93933;-73
2023/06/04 07:05:34;;;;;;;8.20;2.33;;;;;;;;;;5020320;28;94451;-73
2023/06/04 07:08:02;;;;;;;9.68;2.28;;;;;;;;;;5033767;28;95051;-73
2023/06/04 07:10:29;;;;;;;6.25;2.90;;;;;;;;;;5034908;27;94537;-73
2023/06/04 07:12:56;;;;;;;8.20;2.45;;;;;;;;;;5035138;28;92503;-73
2023/06/04 07:15:22;;;;;;;8.13;2.50;;;;;;;;;;5035073;28;94513;-73
2023/06/04 07:17:49;;;;;;;6.15;2.78;;;;;;;;;;5034934;27;94392;-73
2023/06/04 07:20:16;;;;;;;6.07;2.60;;;;;;;;;;5035092;27;92710;-73
2023/06/04 07:22:42;;;;;;;6.88;2.30;;;;;;;;;;5034888;27;94131;-73
2023/06/04 07:25:09;;;;;;;6.00;2.63;;;;;;;;;;5034864;28;94142;-73
2023/06/04 07:27:35;;;;;;;7.07;2.83;;;;;;;;;;5038221;28;92406;-73
2023/06/04 07:30:02;;;;;;;11.23;2.55;;;;;;;;;;5034494;28;94464;-73
2023/06/04 07:32:28;;;;;;;5.10;2.05;;;;;;;;;;5015188;28;94827;-74
2023/06/04 07:34:55;;;;;;;4.55;2.05;;;;;;;;;;5034540;28;96583;-73
2023/06/04 07:37:21;;;;;;;8.45;2.55;;;;;;;;;;5034656;28;95103;-74
2023/06/04 07:39:48;;;;;;;8.02;2.58;;;;;;;;;;5034266;28;92470;-75
2023/06/04 07:42:14;;;;;;;8.95;2.22;;;;;;;;;;5034361;28;94276;-73
2023/06/04 07:44:41;;;;;;;7.75;2.58;;;;;;;;;;5034215;27;94452;-73
2023/06/04 07:47:07;;;;;;;6.75;2.35;;;;;;;;;;5034527;27;92402;-73
2023/06/04 07:49:33;;;;;;;7.35;2.53;;;;;;;;;;5019314;28;94302;-73
2023/06/04 07:52:00;;;;;;;6.43;2.10;;;;;;;;;;5034516;28;92369;-73
2023/06/04 07:54:26;;;;;;;4.60;2.25;;;;;;;;;;5033760;27;94336;-74
2023/06/04 07:56:55;;;;;;;12.50;2.35;;;;;;;;;;5032359;27;97356;-73
2023/06/04 07:59:22;;;;;;;3.63;1.67;;;;;;;;;;5034673;28;92417;-74
2023/06/04 08:01:49;;;;;;;3.33;1.88;;;;;;;;;;5034425;28;94963;-73
2023/06/04 08:04:16;;;;;;;7.68;2.47;;;;;;;;;;5034316;28;94379;-73
2023/06/04 08:06:44;;;;;;;4.28;2.00;;;;;;;;;;5016419;28;92424;-74
2023/06/04 08:09:11;;;;;;;4.80;2.10;;;;;;;;;;5034337;27;94375;-73
2023/06/04 08:11:38;;;;;;;8.65;2.40;;;;;;;;;;5037172;28;94676;-74
2023/06/04 08:14:05;;;;;;;6.22;1.90;;;;;;;;;;5034704;28;93698;-74
2023/06/04 08:16:31;;;;;;;5.05;1.90;;;;;;;;;;5034027;27;95237;-73
2023/06/04 08:18:58;;;;;;;4.70;1.63;;;;;;;;;;5034030;28;92455;-73
2023/06/04 08:21:25;;;;;;;7.00;2.08;;;;;;;;;;5032227;27;94886;-74
2023/06/04 08:23:52;;;;;;;7.43;2.00;;;;;;;;;;5032301;28;94523;-73
2023/06/04 08:26:19;;;;;;;3.30;1.55;;;;;;;;;;5033991;28;92442;-74
2023/06/04 08:28:51;;;;;;;3.78;1.67;;;;;;;;;;5034177;28;95963;-73
2023/06/04 08:31:18;;;;;;;6.78;1.83;;;;;;;;;;5033763;28;94484;-74
2023/06/04 08:33:45;;;;;;;5.60;1.80;;;;;;;;;;5036963;27;92394;-74
2023/06/04 08:36:12;;;;;;;3.70;1.30;;;;;;;;;;5033601;27;95031;-74
2023/06/04 08:38:38;;;;;;;6.60;1.73;;;;;;;;;;5034352;27;91689;-74
2023/06/04 08:41:35;;;;;;;5.15;1.10;;;;;;;;;;5033719;28;93683;-74
2023/06/04 08:44:03;;;;;;;5.50;1.60;;;;;;;;;;5020072;28;94042;-74
2023/06/04 08:46:31;;;;;;;8.27;1.63;;;;;;;;;;5031822;27;94830;-74
2023/06/04 08:49:01;;;;;;;3.55;1.67;;;;;;;;;;5033608;27;95697;-74
2023/06/04 08:51:28;;;;;;;3.08;1.50;;;;;;;;;;5033609;28;95156;-74
2023/06/04 08:53:57;;;;;;;10.38;1.88;;;;;;;;;;5036798;28;93517;-73
2023/06/04 08:56:23;;;;;;;6.10;1.63;;;;;;;;;;5033346;28;94967;-74
2023/06/04 08:58:50;;;;;;;8.25;1.65;;;;;;;;;;5033667;28;92882;-74
2023/06/04 09:01:18;;;;;;;6.03;1.40;;;;;;;;;;5034095;27;94060;-75
2023/06/04 09:03:45;;;;;;;5.80;1.48;;;;;;;;;;5037505;28;93757;-74
2023/06/04 09:06:12;;;;;;;4.22;1.60;;;;;;;;;;5036964;27;92427;-74
2023/06/04 09:08:40;;;;;;;2.45;1.42;;;;;;;;;;5035917;28;94720;-73
2023/06/04 09:11:10;;;;;;;8.93;1.15;;;;;;;;;;5035280;27;96594;-74
2023/06/04 09:13:38;;;;;;;3.08;1.25;;;;;;;;;;5036962;27;92400;-74
2023/06/04 09:16:06;;;;;;;3.78;1.25;;;;;;;;;;5039484;27;94296;-74
2023/06/04 09:18:33;;;;;;;7.93;1.35;;;;;;;;;;5036666;27;92450;-75
2023/06/04 09:21:00;;;;;;;6.60;1.17;;;;;;;;;;5036677;27;94322;-74
2023/06/04 09:23:27;;;;;;;1.73;1.00;;;;;;;;;;5036627;28;96857;-73
2023/06/04 09:25:54;;;;;;;2.30;1.13;;;;;;;;;;5036338;27;92429;-73
2023/06/04 09:28:20;;;;;;;2.58;1.50;;;;;;;;;;5037146;27;94388;-74
2023/06/04 09:30:51;;;;;;;4.35;1.30;;;;;;;;;;5018550;28;94482;-74
2023/06/04 09:33:17;;;;;;;2.92;1.30;;;;;;;;;;5018387;28;92406;-74
2023/06/04 09:35:52;;;;;;;6.63;1.48;;;;;;;;;;5034826;27;94809;-74
2023/06/04 09:38:19;;;;;;;1.73;1.02;;;;;;;;;;5039316;28;94420;-74
2023/06/04 09:40:46;;;;;;;3.03;1.20;;;;;;;;;;5036539;27;94561;-73
2023/06/04 09:43:20;;;;;;;5.57;1.35;;;;;;;;;;5036303;27;94730;-74
2023/06/04 09:45:48;;;;;;;3.00;1.40;;;;;;;;;;5036495;28;92441;-74
2023/06/04 09:48:23;;;;;;;2.50;1.40;;;;;;;;;;5036382;27;93483;-74
2023/06/04 09:50:49;;;;;;;4.57;1.05;;;;;;;;;;5018107;28;95209;-74
2023/06/04 09:53:17;;;;;;;1.58;1.00;;;;;;;;;;5036793;28;91708;-74
2023/06/04 09:55:44;;;;;;;4.20;0.95;;;;;;;;;;5036164;27;93438;-74
2023/06/04 09:58:12;;;;;;;3.40;1.63;;;;;;;;;;5035988;28;94529;-75
2023/06/04 10:00:38;;;;;;;3.33;1.08;;;;;;;;;;5037470;28;94828;-74
2023/06/04 10:03:05;;;;;;;2.40;1.10;;;;;;;;;;5036031;28;94494;-74
2023/06/04 10:05:34;;;;;;;2.47;1.10;;;;;;;;;;5018231;28;93055;-74
2023/06/04 10:08:12;;;;;;;4.47;1.30;;;;;;;;;;5018405;28;94205;-75
2023/06/04 10:10:39;;;;;;;7.65;1.00;;;;;;;;;;5001638;28;94262;-75
2023/06/04 10:13:15;;;;;;;6.53;1.35;;;;;;;;;;5035644;27;92471;-75
2023/06/04 10:15:42;;;;;;;9.45;2.35;;;;;;;;;;5035882;28;94393;-74
2023/06/04 10:18:10;;;;;;;3.95;1.30;;;;;;;;;;5035944;28;94068;-74
2023/06/04 10:20:37;;;;;;;1.65;0.93;;;;;;;;;;5035605;28;92438;-74
2023/06/04 10:23:04;;;;;;;1.73;1.05;;;;;;;;;;5038702;27;94489;-74
2023/06/04 10:25:31;;;;;;;8.65;1.40;;;;;;;;;;5033676;27;94872;-74
2023/06/04 10:27:58;;;;;;;8.77;1.73;;;;;;;;;;5035765;28;96752;-74
2023/06/04 10:30:25;;;;;;;4.78;1.52;;;;;;;;;;5035425;28;94355;-76
2023/06/04 10:32:52;;;;;;;2.97;1.13;;;;;;;;;;5035491;27;92458;-73
2023/06/04 10:35:29;;;;;;;3.45;1.52;;;;;;;;;;5035501;28;95608;-74
2023/06/04 10:38:05;;;;;;;2.92;0.95;;;;;;;;;;5035416;28;95055;-73
2023/06/04 10:40:34;;;;;;;8.18;1.20;;;;;;;;;;5035413;27;92471;-74
2023/06/04 10:43:07;;;;;;;3.13;1.30;;;;;;;;;;5038637;28;96192;-75
2023/06/04 10:45:34;;;;;;;9.27;1.15;;;;;;;;;;5017059;28;92488;-73
2023/06/04 10:48:04;;;;;;;4.53;1.13;;;;;;;;;;5035570;27;94285;-74
2023/06/04 10:50:49;;;;;;;3.72;1.10;;;;;;;;;;5033424;27;97347;-74
2023/06/04 10:53:17;;;;;;;10.50;1.35;;;;;;;;;;5035356;27;92404;-74
2023/06/04 10:55:44;;;;;;;2.45;1.08;;;;;;;;;;5034878;27;94544;-74
2023/06/04 10:58:11;;;;;;;5.07;1.27;;;;;;;;;;5033759;28;94432;-74
2023/06/04 11:00:41;;;;;;;3.65;1.27;;;;;;;;;;5017575;28;92483;-74
2023/06/04 11:03:10;;;;;;;5.88;1.50;;;;;;;;;;5017179;28;94707;-74
2023/06/04 11:05:42;;;;;;;2.33;1.27;;;;;;;;;;5036696;28;94399;-74
2023/06/04 11:08:10;;;;;;;4.68;1.60;;;;;;;;;;5035114;27;94553;-74
2023/06/04 11:10:38;;;;;;;6.85;1.30;;;;;;;;;;5033577;27;94453;-74
2023/06/04 11:13:05;;;;;;;8.82;1.95;;;;;;;;;;5034883;28;92392;-74
2023/06/04 11:15:41;;;;;;;3.83;1.48;;;;;;;;;;5032090;27;94931;-74
2023/06/04 11:18:08;;;;;;;3.35;1.30;;;;;;;;;;5016670;28;94437;-74
2023/06/04 11:20:35;;;;;;;5.38;1.40;;;;;;;;;;5016387;28;93237;-74
2023/06/04 11:23:03;;;;;;;4.38;1.30;;;;;;;;;;5034936;28;94323;-74
2023/06/04 11:25:30;;;;;;;4.03;1.30;;;;;;;;;;5033120;27;94498;-74
2023/06/04 11:27:57;;;;;;;3.60;1.40;;;;;;;;;;5037807;27;92749;-74
2023/06/04 11:30:24;;;;;;;5.13;1.10;;;;;;;;;;5034389;27;94452;-74
2023/06/04 11:32:59;;;;;;;4.78;1.52;;;;;;;;;;5035274;28;92257;-75
2023/06/04 11:35:26;;;;;;;3.47;1.23;;;;;;;;;;5034576;27;93469;-75
2023/06/04 11:37:53;;;;;;;4.53;1.38;;;;;;;;;;5034527;27;94551;-74
2023/06/04 11:40:19;;;;;;;5.72;1.50;;;;;;;;;;5032754;28;94801;-74
2023/06/04 11:42:49;;;;;;;5.00;1.33;;;;;;;;;;5034414;28;94696;-74
2023/06/04 11:45:17;;;;;;;2.83;1.27;;;;;;;;;;5034164;28;93045;-74
2023/06/04 11:47:47;;;;;;;2.40;1.17;;;;;;;;;;5016110;28;92529;-74
2023/06/04 11:50:14;;;;;;;;;;;;;;;;;;5037717;28;93458;-74
2023/06/04 11:52:41;;;;;;;4.15;1.40;;;;;;;;;;5035064;27;117894;-74
2023/06/04 11:55:08;;;;;;;3.95;1.20;;;;;;;;;;5034246;28;94256;-74
2023/06/04 11:57:35;;;;;;;6.38;1.10;;;;;;;;;;5034742;27;93887;-74
2023/06/04 12:00:02;;;;;;;4.68;1.25;;;;;;;;;;5034275;27;92433;-74
2023/06/04 12:02:28;;;;;;;2.70;1.17;;;;;;;;;;5034043;28;94009;-74
2023/06/04 12:04:55;;;;;;;6.00;1.17;;;;;;;;;;5032445;28;97253;-73
2023/06/04 12:07:25;;;;;;;6.78;1.58;;;;;;;;;;5034273;27;92602;-75
2023/06/04 12:09:53;;;;;;;6.68;1.30;;;;;;;;;;5033966;28;94631;-75
2023/06/04 12:12:21;;;;;;;7.55;1.40;;;;;;;;;;5037021;28;94498;-75
2023/06/04 12:14:55;;;;;;;4.82;1.27;;;;;;;;;;5033819;27;94661;-75
2023/06/04 12:17:21;;;;;;;4.22;1.45;;;;;;;;;;5033921;28;94548;-75
2023/06/04 12:19:49;;;;;;;8.23;1.65;;;;;;;;;;5033976;28;92440;-74
2023/06/04 12:22:15;;;;;;;3.90;1.10;;;;;;;;;;5034667;28;95022;-74
2023/06/04 12:24:47;;;;;;;2.80;1.27;;;;;;;;;;5032893;28;93581;-75
2023/06/04 12:27:15;;;;;;;14.00;1.63;;;;;;;;;;5033613;27;92469;-74
2023/06/04 12:29:42;;;;;;;6.32;1.13;;;;;;;;;;5032597;28;95623;-74
2023/06/04 12:32:11;;;;;;;3.63;1.52;;;;;;;;;;5033594;28;94603;-74
2023/06/04 12:34:38;;;;;;;4.97;1.38;;;;;;;;;;5037182;28;92404;-74
2023/06/04 12:37:07;;;;;;;5.38;1.27;;;;;;;;;;5036957;27;94459;-74
2023/06/04 12:39:33;;;;;;;5.57;1.02;;;;;;;;;;5037624;28;92395;-74
2023/06/04 12:42:01;;;;;;;2.28;1.13;;;;;;;;;;5037430;27;94132;-74
2023/06/04 12:44:28;;;;;;;1.85;1.20;;;;;;;;;;5036908;27;94589;-74
2023/06/04 12:46:54;;;;;;;6.25;1.98;;;;;;;;;;5037684;28;91691;-74
2023/06/04 12:49:21;;;;;;;12.00;1.50;;;;;;;;;;5037195;28;93484;-74
2023/06/04 12:51:47;;;;;;;5.22;1.30;;;;;;;;;;5036977;28;94479;-74
2023/06/04 12:54:14;;;;;;;3.08;1.30;;;;;;;;;;5038631;28;94813;-74
2023/06/04 12:56:41;;;;;;;4.53;1.58;;;;;;;;;;5036641;28;94579;-74
2023/06/04 12:59:07;;;;;;;6.88;1.55;;;;;;;;;;5037080;27;92438;-74
2023/06/04 13:01:33;;;;;;;6.32;1.55;;;;;;;;;;5036877;27;94686;-74
2023/06/04 13:04:00;;;;;;;7.03;1.40;;;;;;;;;;5036909;28;94822;-74
2023/06/04 13:06:27;;;;;;;2.08;1.20;;;;;;;;;;5036773;28;92431;-74
2023/06/04 13:08:53;;;;;;;3.30;1.33;;;;;;;;;;5037066;28;92310;-75
2023/06/04 13:11:20;;;;;;;2.08;1.00;;;;;;;;;;5037458;28;92550;-74
2023/06/04 13:13:46;;;;;;;5.25;1.30;;;;;;;;;;5036946;27;92635;-74
2023/06/04 13:16:16;;;;;;;10.55;1.33;;;;;;;;;;5039724;28;93195;-74
2023/06/04 13:18:42;;;;;;;2.55;1.10;;;;;;;;;;5035325;28;94744;-74
2023/06/04 13:21:08;;;;;;;4.50;1.52;;;;;;;;;;5018630;28;96912;-75
2023/06/04 13:23:35;;;;;;;4.85;1.30;;;;;;;;;;5036488;27;94411;-74
2023/06/04 13:26:18;;;;;;;5.00;1.38;;;;;;;;;;5036790;28;92364;-75
2023/06/04 13:28:45;;;;;;;4.40;1.20;;;;;;;;;;5036842;28;94392;-74
2023/06/04 13:31:11;;;;;;;3.20;1.63;;;;;;;;;;5036325;27;94569;-74
2023/06/04 13:33:38;;;;;;;0.90;0.90;;;;;;;;;;5036734;27;92436;-74
2023/06/04 13:36:05;;;;;;;3.65;1.33;;;;;;;;;;5036860;27;94335;-75
2023/06/04 13:38:32;;;;;;;4.72;1.30;;;;;;;;;;5039502;28;93423;-75
2023/06/04 13:40:58;;;;;;;2.13;1.17;;;;;;;;;;5036363;28;93029;-74
2023/06/04 13:43:25;;;;;;;8.75;1.50;;;;;;;;;;5034659;28;97002;-75
2023/06/04 13:45:51;;;;;;;6.75;1.42;;;;;;;;;;5036097;28;92492;-75
2023/06/04 13:48:18;;;;;;;5.15;1.20;;;;;;;;;;5035382;27;94336;-75
2023/06/04 13:50:45;;;;;;;7.40;1.70;;;;;;;;;;5035732;28;94862;-75
2023/06/04 13:53:14;;;;;;;3.40;1.40;;;;;;;;;;5036260;28;92401;-75
2023/06/04 13:55:41;;;;;;;8.73;1.48;;;;;;;;;;5018444;28;94955;-76
2023/06/04 13:58:10;;;;;;;3.45;1.63;;;;;;;;;;5018564;28;93215;-74
2023/06/04 14:00:37;;;;;;;7.05;1.52;;;;;;;;;;5039792;28;91675;-74
2023/06/04 14:03:03;;;;;;;5.88;1.85;;;;;;;;;;5017676;28;94501;-74
2023/06/04 14:05:30;;;;;;;5.80;1.30;;;;;;;;;;5035865;28;92579;-74
2023/06/04 14:07:57;;;;;;;6.07;1.30;;;;;;;;;;5034546;28;94832;-74
2023/06/04 14:10:24;;;;;;;4.07;1.15;;;;;;;;;;5035700;27;94435;-74
2023/06/04 14:12:50;;;;;;;7.85;1.45;;;;;;;;;;5036206;28;92437;-75
2023/06/04 14:15:17;;;;;;;3.08;1.50;;;;;;;;;;5036235;28;94270;-75
2023/06/04 14:17:43;;;;;;;5.95;1.70;;;;;;;;;;5035315;27;94463;-75
2023/06/04 14:20:12;;;;;;;4.88;1.73;;;;;;;;;;5035734;27;92448;-75
2023/06/04 14:22:38;;;;;;;10.05;1.50;;;;;;;;;;5038632;28;94212;-75
2023/06/04 14:25:06;;;;;;;7.13;1.50;;;;;;;;;;5035959;28;92194;-75
2023/06/04 14:27:34;;;;;;;3.60;1.30;;;;;;;;;;5035756;28;93582;-75
2023/06/04 14:30:04;;;;;;;7.72;2.00;;;;;;;;;;5035566;28;94528;-75
2023/06/04 14:32:30;;;;;;;;;;;;;;;;;;5017039;27;94944;-73
2023/06/04 14:35:03;;;;;;;5.25;1.30;;;;;;;;;;5036155;28;124766;-75
2023/06/04 14:37:29;;;;;;;4.25;1.48;;;;;;;;;;5035178;28;95061;-75
2023/06/04 14:39:56;;;;;;;9.48;1.95;;;;;;;;;;5035868;27;92452;-74
2023/06/04 14:42:22;;;;;;;4.97;1.70;;;;;;;;;;5035392;28;94219;-75
2023/06/04 14:44:49;;;;;;;12.55;1.50;;;;;;;;;;5020149;28;94858;-75